sensor_id;sensor_type;location;lat;lon;timestamp;temperature;humidity
13328;DHT22;6733;51.044;3.746;2023-02-17T00:01:23;11.50;99.90
13328;DHT22;6733;51.044;3.746;2023-02-17T00:03:50;11.50;99.90
13328;DHT22;6733;51.044;3.746;2023-02-17T00:06:20;11.50;99.90
13328;DHT22;6733;51.044;3.746;2023-02-17T00:08:47;11.50;99.90
13328;DHT22;6733;51.044;3.746;2023-02-17T00:11:13;11.50;99.90
13328;DHT22;6733;51.044;3.746;2023-02-17T00:13:40;11.50;99.90
13328;DHT22;6733;51.044;3.746;2023-02-17T00:16:09;11.50;99.90
13328;DHT22;6733;51.044;3.746;2023-02-17T00:18:36;11.40;99.90
13328;DHT22;6733;51.044;3.746;2023-02-17T00:21:14;11.40;99.90
13328;DHT22;6733;51.044;3.746;2023-02-17T00:23:41;11.40;99.90
13328;DHT22;6733;51.044;3.746;2023-02-17T00:26:07;11.50;99.90
13328;DHT22;6733;51.044;3.746;2023-02-17T00:28:33;11.50;99.90
13328;DHT22;6733;51.044;3.746;2023-02-17T00:31:08;11.40;99.90
13328;DHT22;6733;51.044;3.746;2023-02-17T00:33:35;11.40;99.90
13328;DHT22;6733;51.044;3.746;2023-02-17T00:36:10;11.40;99.90
13328;DHT22;6733;51.044;3.746;2023-02-17T00:38:37;11.30;99.90
13328;DHT22;6733;51.044;3.746;2023-02-17T00:41:03;11.40;99.90
13328;DHT22;6733;51.044;3.746;2023-02-17T00:43:30;11.30;99.90
13328;DHT22;6733;51.044;3.746;2023-02-17T00:45:56;11.30;99.90
13328;DHT22;6733;51.044;3.746;2023-02-17T00:48:22;11.30;99.90
13328;DHT22;6733;51.044;3.746;2023-02-17T00:50:49;11.30;99.90
13328;DHT22;6733;51.044;3.746;2023-02-17T00:53:15;11.30;99.90
13328;DHT22;6733;51.044;3.746;2023-02-17T00:55:41;11.30;99.90
13328;DHT22;6733;51.044;3.746;2023-02-17T00:58:08;11.30;99.90
13328;DHT22;6733;51.044;3.746;2023-02-17T01:00:34;11.40;99.90
13328;DHT22;6733;51.044;3.746;2023-02-17T01:03:00;11.30;99.90
13328;DHT22;6733;51.044;3.746;2023-02-17T01:05:26;11.40;99.90
13328;DHT22;6733;51.044;3.746;2023-02-17T01:07:52;11.40;99.90
13328;DHT22;6733;51.044;3.746;2023-02-17T01:10:19;11.40;99.90
13328;DHT22;6733;51.044;3.746;2023-02-17T01:12:45;11.30;99.90
13328;DHT22;6733;51.044;3.746;2023-02-17T01:15:11;11.30;99.90
13328;DHT22;6733;51.044;3.746;2023-02-17T01:17:37;11.30;99.90
13328;DHT22;6733;51.044;3.746;2023-02-17T01:20:04;11.30;99.90
13328;DHT22;6733;51.044;3.746;2023-02-17T01:22:30;11.30;99.90
13328;DHT22;6733;51.044;3.746;2023-02-17T01:24:57;11.30;99.90
13328;DHT22;6733;51.044;3.746;2023-02-17T01:27:23;11.30;99.90
13328;DHT22;6733;51.044;3.746;2023-02-17T01:29:49;11.30;99.90
13328;DHT22;6733;51.044;3.746;2023-02-17T01:32:15;11.30;99.90
13328;DHT22;6733;51.044;3.746;2023-02-17T01:34:41;11.30;99.90
13328;DHT22;6733;51.044;3.746;2023-02-17T01:37:07;11.30;99.90
13328;DHT22;6733;51.044;3.746;2023-02-17T01:39:33;11.30;99.90
13328;DHT22;6733;51.044;3.746;2023-02-17T01:42:00;11.20;99.90
13328;DHT22;6733;51.044;3.746;2023-02-17T01:44:26;11.20;99.90
13328;DHT22;6733;51.044;3.746;2023-02-17T01:46:54;11.20;99.90
13328;DHT22;6733;51.044;3.746;2023-02-17T01:52:22;11.20;99.90
13328;DHT22;6733;51.044;3.746;2023-02-17T01:54:54;11.10;99.90
13328;DHT22;6733;51.044;3.746;2023-02-17T01:57:25;11.20;99.90
13328;DHT22;6733;51.044;3.746;2023-02-17T01:59:53;11.10;99.90
13328;DHT22;6733;51.044;3.746;2023-02-17T02:02:21;11.10;99.90
13328;DHT22;6733;51.044;3.746;2023-02-17T02:04:50;11.10;99.90
13328;DHT22;6733;51.044;3.746;2023-02-17T02:07:20;11.10;99.90
13328;DHT22;6733;51.044;3.746;2023-02-17T02:09:53;11.10;99.90
13328;DHT22;6733;51.044;3.746;2023-02-17T02:12:26;11.10;99.90
13328;DHT22;6733;51.044;3.746;2023-02-17T02:14:56;11.10;99.90
13328;DHT22;6733;51.044;3.746;2023-02-17T02:20:37;11.00;99.90
13328;DHT22;6733;51.044;3.746;2023-02-17T02:32:25;10.90;99.90
13328;DHT22;6733;51.044;3.746;2023-02-17T02:35:05;10.90;99.90
13328;DHT22;6733;51.044;3.746;2023-02-17T02:37:44;10.80;99.90
13328;DHT22;6733;51.044;3.746;2023-02-17T02:40:14;10.90;99.90
13328;DHT22;6733;51.044;3.746;2023-02-17T02:42:42;10.80;99.90
13328;DHT22;6733;51.044;3.746;2023-02-17T02:45:10;10.90;99.90
13328;DHT22;6733;51.044;3.746;2023-02-17T02:50:10;10.80;99.90
13328;DHT22;6733;51.044;3.746;2023-02-17T02:55:50;11.00;99.90
13328;DHT22;6733;51.044;3.746;2023-02-17T02:58:25;10.90;99.90
13328;DHT22;6733;51.044;3.746;2023-02-17T03:09:10;10.90;99.90
13328;DHT22;6733;51.044;3.746;2023-02-17T03:11:34;10.90;99.90
13328;DHT22;6733;51.044;3.746;2023-02-17T03:14:06;10.80;99.90
13328;DHT22;6733;51.044;3.746;2023-02-17T03:16:35;10.90;99.90
13328;DHT22;6733;51.044;3.746;2023-02-17T03:19:01;10.90;99.90
13328;DHT22;6733;51.044;3.746;2023-02-17T03:22:19;10.90;99.90
13328;DHT22;6733;51.044;3.746;2023-02-17T03:24:19;11.00;99.90
13328;DHT22;6733;51.044;3.746;2023-02-17T03:26:45;11.00;99.90
13328;DHT22;6733;51.044;3.746;2023-02-17T03:29:11;11.00;99.90
13328;DHT22;6733;51.044;3.746;2023-02-17T03:31:38;10.90;99.90
13328;DHT22;6733;51.044;3.746;2023-02-17T03:34:05;11.00;99.90
13328;DHT22;6733;51.044;3.746;2023-02-17T03:36:32;11.00;99.90
13328;DHT22;6733;51.044;3.746;2023-02-17T03:38:58;11.00;99.90
13328;DHT22;6733;51.044;3.746;2023-02-17T03:41:24;11.00;99.90
13328;DHT22;6733;51.044;3.746;2023-02-17T03:43:50;11.00;99.90
13328;DHT22;6733;51.044;3.746;2023-02-17T03:46:17;11.00;99.90
13328;DHT22;6733;51.044;3.746;2023-02-17T03:48:43;11.00;99.90
13328;DHT22;6733;51.044;3.746;2023-02-17T03:51:18;11.00;99.90
13328;DHT22;6733;51.044;3.746;2023-02-17T03:53:45;11.00;99.90
13328;DHT22;6733;51.044;3.746;2023-02-17T03:56:12;11.00;99.90
13328;DHT22;6733;51.044;3.746;2023-02-17T03:58:39;11.00;99.90
13328;DHT22;6733;51.044;3.746;2023-02-17T04:01:07;11.00;99.90
13328;DHT22;6733;51.044;3.746;2023-02-17T04:03:34;11.00;99.90
13328;DHT22;6733;51.044;3.746;2023-02-17T04:06:00;11.00;99.90
13328;DHT22;6733;51.044;3.746;2023-02-17T04:08:27;11.00;99.90
13328;DHT22;6733;51.044;3.746;2023-02-17T04:10:55;11.00;99.90
13328;DHT22;6733;51.044;3.746;2023-02-17T04:13:22;11.00;99.90
13328;DHT22;6733;51.044;3.746;2023-02-17T04:15:48;11.00;99.90
13328;DHT22;6733;51.044;3.746;2023-02-17T04:18:15;11.00;99.90
13328;DHT22;6733;51.044;3.746;2023-02-17T04:20:42;11.00;99.90
13328;DHT22;6733;51.044;3.746;2023-02-17T04:23:09;11.00;99.90
13328;DHT22;6733;51.044;3.746;2023-02-17T04:25:36;10.90;99.90
13328;DHT22;6733;51.044;3.746;2023-02-17T04:28:06;11.00;99.90
13328;DHT22;6733;51.044;3.746;2023-02-17T04:30:34;11.00;99.90
13328;DHT22;6733;51.044;3.746;2023-02-17T04:33:00;10.90;99.90
13328;DHT22;6733;51.044;3.746;2023-02-17T04:35:27;10.90;99.90
13328;DHT22;6733;51.044;3.746;2023-02-17T04:37:53;10.90;99.90
13328;DHT22;6733;51.044;3.746;2023-02-17T04:40:19;11.00;99.90
13328;DHT22;6733;51.044;3.746;2023-02-17T04:42:46;11.00;99.90
13328;DHT22;6733;51.044;3.746;2023-02-17T04:45:12;11.00;99.90
13328;DHT22;6733;51.044;3.746;2023-02-17T04:47:39;11.00;99.90
13328;DHT22;6733;51.044;3.746;2023-02-17T04:50:08;11.00;99.90
13328;DHT22;6733;51.044;3.746;2023-02-17T04:52:35;11.00;99.90
13328;DHT22;6733;51.044;3.746;2023-02-17T04:55:02;11.00;99.90
13328;DHT22;6733;51.044;3.746;2023-02-17T04:57:29;11.10;99.90
13328;DHT22;6733;51.044;3.746;2023-02-17T04:59:55;11.10;99.90
13328;DHT22;6733;51.044;3.746;2023-02-17T05:02:21;11.00;99.90
13328;DHT22;6733;51.044;3.746;2023-02-17T05:04:47;10.90;99.90
13328;DHT22;6733;51.044;3.746;2023-02-17T05:07:13;11.00;99.90
13328;DHT22;6733;51.044;3.746;2023-02-17T05:09:39;10.90;99.90
13328;DHT22;6733;51.044;3.746;2023-02-17T05:12:06;11.00;99.90
13328;DHT22;6733;51.044;3.746;2023-02-17T05:14:32;10.90;99.90
13328;DHT22;6733;51.044;3.746;2023-02-17T05:16:58;10.90;99.90
13328;DHT22;6733;51.044;3.746;2023-02-17T05:19:24;11.00;99.90
13328;DHT22;6733;51.044;3.746;2023-02-17T05:21:51;11.00;99.90
13328;DHT22;6733;51.044;3.746;2023-02-17T05:24:17;11.00;99.90
13328;DHT22;6733;51.044;3.746;2023-02-17T05:26:43;11.00;99.90
13328;DHT22;6733;51.044;3.746;2023-02-17T05:29:09;10.90;99.90
13328;DHT22;6733;51.044;3.746;2023-02-17T05:31:36;11.00;99.90
13328;DHT22;6733;51.044;3.746;2023-02-17T05:34:02;11.00;99.90
13328;DHT22;6733;51.044;3.746;2023-02-17T05:36:28;11.00;99.90
13328;DHT22;6733;51.044;3.746;2023-02-17T05:38:54;11.00;99.90
13328;DHT22;6733;51.044;3.746;2023-02-17T05:41:22;11.00;99.90
13328;DHT22;6733;51.044;3.746;2023-02-17T05:43:48;11.00;99.90
13328;DHT22;6733;51.044;3.746;2023-02-17T05:46:14;10.90;99.90
13328;DHT22;6733;51.044;3.746;2023-02-17T05:48:40;10.90;99.90
13328;DHT22;6733;51.044;3.746;2023-02-17T05:51:07;10.90;99.90
13328;DHT22;6733;51.044;3.746;2023-02-17T05:53:33;10.90;99.90
13328;DHT22;6733;51.044;3.746;2023-02-17T05:55:59;10.90;99.90
13328;DHT22;6733;51.044;3.746;2023-02-17T05:58:25;10.90;99.90
13328;DHT22;6733;51.044;3.746;2023-02-17T06:00:52;10.90;99.90
13328;DHT22;6733;51.044;3.746;2023-02-17T06:03:18;11.00;99.90
13328;DHT22;6733;51.044;3.746;2023-02-17T06:05:44;10.90;99.90
13328;DHT22;6733;51.044;3.746;2023-02-17T06:08:10;11.00;99.90
13328;DHT22;6733;51.044;3.746;2023-02-17T06:10:36;11.00;99.90
13328;DHT22;6733;51.044;3.746;2023-02-17T06:13:03;11.00;99.90
13328;DHT22;6733;51.044;3.746;2023-02-17T06:15:29;11.00;99.90
13328;DHT22;6733;51.044;3.746;2023-02-17T06:17:55;11.00;99.90
13328;DHT22;6733;51.044;3.746;2023-02-17T06:20:21;11.10;99.90
13328;DHT22;6733;51.044;3.746;2023-02-17T06:22:47;11.10;99.90
13328;DHT22;6733;51.044;3.746;2023-02-17T06:25:13;11.10;99.90
13328;DHT22;6733;51.044;3.746;2023-02-17T06:27:40;11.10;99.90
13328;DHT22;6733;51.044;3.746;2023-02-17T06:30:08;11.10;99.90
13328;DHT22;6733;51.044;3.746;2023-02-17T06:32:34;11.10;99.90
13328;DHT22;6733;51.044;3.746;2023-02-17T06:35:00;11.20;99.90
13328;DHT22;6733;51.044;3.746;2023-02-17T06:37:26;11.20;99.90
13328;DHT22;6733;51.044;3.746;2023-02-17T06:39:53;11.20;99.90
13328;DHT22;6733;51.044;3.746;2023-02-17T06:42:19;11.20;99.90
13328;DHT22;6733;51.044;3.746;2023-02-17T06:44:45;11.20;99.90
13328;DHT22;6733;51.044;3.746;2023-02-17T06:47:12;11.20;99.90
13328;DHT22;6733;51.044;3.746;2023-02-17T06:49:39;11.20;99.90
13328;DHT22;6733;51.044;3.746;2023-02-17T06:52:05;11.30;99.90
13328;DHT22;6733;51.044;3.746;2023-02-17T06:54:31;11.20;99.90
13328;DHT22;6733;51.044;3.746;2023-02-17T06:56:57;11.30;99.90
13328;DHT22;6733;51.044;3.746;2023-02-17T06:59:23;11.30;99.90
13328;DHT22;6733;51.044;3.746;2023-02-17T07:01:49;11.40;99.90
13328;DHT22;6733;51.044;3.746;2023-02-17T07:04:15;11.40;99.90
13328;DHT22;6733;51.044;3.746;2023-02-17T07:06:42;11.30;99.90
13328;DHT22;6733;51.044;3.746;2023-02-17T07:09:08;11.30;99.90
13328;DHT22;6733;51.044;3.746;2023-02-17T07:11:38;11.40;99.90
13328;DHT22;6733;51.044;3.746;2023-02-17T07:14:04;11.30;99.90
13328;DHT22;6733;51.044;3.746;2023-02-17T07:16:31;11.40;99.90
13328;DHT22;6733;51.044;3.746;2023-02-17T07:18:57;11.40;99.90
13328;DHT22;6733;51.044;3.746;2023-02-17T07:21:24;11.40;99.90
13328;DHT22;6733;51.044;3.746;2023-02-17T07:23:50;11.40;99.90
13328;DHT22;6733;51.044;3.746;2023-02-17T07:26:16;11.40;99.90
13328;DHT22;6733;51.044;3.746;2023-02-17T07:28:43;11.50;99.90
13328;DHT22;6733;51.044;3.746;2023-02-17T07:31:12;11.40;99.90
13328;DHT22;6733;51.044;3.746;2023-02-17T07:33:39;11.50;99.90
13328;DHT22;6733;51.044;3.746;2023-02-17T07:36:11;11.50;99.90
13328;DHT22;6733;51.044;3.746;2023-02-17T07:38:38;11.50;99.90
13328;DHT22;6733;51.044;3.746;2023-02-17T07:41:16;11.50;99.90
13328;DHT22;6733;51.044;3.746;2023-02-17T07:43:43;11.50;99.90
13328;DHT22;6733;51.044;3.746;2023-02-17T07:46:09;11.50;99.90
13328;DHT22;6733;51.044;3.746;2023-02-17T07:48:36;11.60;99.90
13328;DHT22;6733;51.044;3.746;2023-02-17T07:51:13;11.60;99.90
13328;DHT22;6733;51.044;3.746;2023-02-17T07:53:40;11.60;99.90
13328;DHT22;6733;51.044;3.746;2023-02-17T07:56:09;11.60;99.90
13328;DHT22;6733;51.044;3.746;2023-02-17T07:58:37;11.60;99.90
13328;DHT22;6733;51.044;3.746;2023-02-17T08:01:07;11.60;99.90
13328;DHT22;6733;51.044;3.746;2023-02-17T08:03:33;11.50;99.90
13328;DHT22;6733;51.044;3.746;2023-02-17T08:05:59;11.30;99.90
13328;DHT22;6733;51.044;3.746;2023-02-17T08:08:26;11.30;99.90
13328;DHT22;6733;51.044;3.746;2023-02-17T08:11:15;11.20;99.90
13328;DHT22;6733;51.044;3.746;2023-02-17T08:14:00;11.20;99.90
13328;DHT22;6733;51.044;3.746;2023-02-17T08:16:26;11.20;99.90
13328;DHT22;6733;51.044;3.746;2023-02-17T08:18:53;11.20;99.90
13328;DHT22;6733;51.044;3.746;2023-02-17T08:21:21;11.20;99.90
13328;DHT22;6733;51.044;3.746;2023-02-17T08:23:48;11.20;99.90
13328;DHT22;6733;51.044;3.746;2023-02-17T08:26:14;11.20;99.90
13328;DHT22;6733;51.044;3.746;2023-02-17T08:28:41;11.20;99.90
13328;DHT22;6733;51.044;3.746;2023-02-17T08:31:49;11.30;99.90
13328;DHT22;6733;51.044;3.746;2023-02-17T08:34:07;11.30;99.90
13328;DHT22;6733;51.044;3.746;2023-02-17T08:36:34;11.30;99.90
13328;DHT22;6733;51.044;3.746;2023-02-17T08:39:04;11.30;99.90
13328;DHT22;6733;51.044;3.746;2023-02-17T08:41:34;11.30;99.90
13328;DHT22;6733;51.044;3.746;2023-02-17T08:44:05;11.30;99.90
13328;DHT22;6733;51.044;3.746;2023-02-17T08:46:34;11.30;99.90
13328;DHT22;6733;51.044;3.746;2023-02-17T08:49:00;11.30;99.90
13328;DHT22;6733;51.044;3.746;2023-02-17T08:51:26;11.40;99.90
13328;DHT22;6733;51.044;3.746;2023-02-17T08:53:55;11.40;99.90
13328;DHT22;6733;51.044;3.746;2023-02-17T08:56:22;11.40;99.90
13328;DHT22;6733;51.044;3.746;2023-02-17T08:58:49;11.50;99.90
13328;DHT22;6733;51.044;3.746;2023-02-17T09:01:16;11.50;99.90
13328;DHT22;6733;51.044;3.746;2023-02-17T09:03:44;11.60;99.90
13328;DHT22;6733;51.044;3.746;2023-02-17T09:06:10;11.60;99.90
13328;DHT22;6733;51.044;3.746;2023-02-17T09:08:38;11.60;99.90
13328;DHT22;6733;51.044;3.746;2023-02-17T09:11:06;11.60;99.90
13328;DHT22;6733;51.044;3.746;2023-02-17T09:13:33;11.70;99.90
13328;DHT22;6733;51.044;3.746;2023-02-17T09:15:59;11.80;99.90
13328;DHT22;6733;51.044;3.746;2023-02-17T09:18:26;11.80;99.90
13328;DHT22;6733;51.044;3.746;2023-02-17T09:20:52;11.80;99.90
13328;DHT22;6733;51.044;3.746;2023-02-17T09:23:19;11.90;99.90
13328;DHT22;6733;51.044;3.746;2023-02-17T09:25:45;11.90;99.90
13328;DHT22;6733;51.044;3.746;2023-02-17T09:28:12;11.80;99.90
13328;DHT22;6733;51.044;3.746;2023-02-17T09:30:41;11.80;99.90
13328;DHT22;6733;51.044;3.746;2023-02-17T09:33:07;11.70;99.90
13328;DHT22;6733;51.044;3.746;2023-02-17T09:35:33;11.70;99.90
13328;DHT22;6733;51.044;3.746;2023-02-17T09:37:59;11.70;99.90
13328;DHT22;6733;51.044;3.746;2023-02-17T09:40:47;11.80;99.90
13328;DHT22;6733;51.044;3.746;2023-02-17T09:43:16;11.70;99.90
13328;DHT22;6733;51.044;3.746;2023-02-17T09:45:49;11.80;99.90
13328;DHT22;6733;51.044;3.746;2023-02-17T09:48:19;11.80;99.90
13328;DHT22;6733;51.044;3.746;2023-02-17T09:51:07;11.80;99.90
13328;DHT22;6733;51.044;3.746;2023-02-17T09:53:56;11.80;99.90
13328;DHT22;6733;51.044;3.746;2023-02-17T09:56:29;11.90;99.90
13328;DHT22;6733;51.044;3.746;2023-02-17T09:58:59;11.90;99.90
13328;DHT22;6733;51.044;3.746;2023-02-17T10:01:32;11.90;99.90
13328;DHT22;6733;51.044;3.746;2023-02-17T10:04:41;11.90;99.90
13328;DHT22;6733;51.044;3.746;2023-02-17T10:07:17;11.90;99.90
13328;DHT22;6733;51.044;3.746;2023-02-17T10:09:51;12.00;99.90
13328;DHT22;6733;51.044;3.746;2023-02-17T10:12:25;11.90;99.90
13328;DHT22;6733;51.044;3.746;2023-02-17T10:14:55;12.00;99.90
13328;DHT22;6733;51.044;3.746;2023-02-17T10:22:29;12.00;99.90
13328;DHT22;6733;51.044;3.746;2023-02-17T10:24:57;12.10;99.90
13328;DHT22;6733;51.044;3.746;2023-02-17T10:27:40;12.10;99.90
13328;DHT22;6733;51.044;3.746;2023-02-17T10:35:47;12.30;99.90
13328;DHT22;6733;51.044;3.746;2023-02-17T10:38:41;12.30;99.90
13328;DHT22;6733;51.044;3.746;2023-02-17T10:41:13;12.30;99.90
13328;DHT22;6733;51.044;3.746;2023-02-17T10:43:41;12.30;99.90
13328;DHT22;6733;51.044;3.746;2023-02-17T10:46:10;12.30;99.90
13328;DHT22;6733;51.044;3.746;2023-02-17T10:48:42;12.40;99.90
13328;DHT22;6733;51.044;3.746;2023-02-17T10:51:12;12.40;99.90
13328;DHT22;6733;51.044;3.746;2023-02-17T10:53:39;12.50;99.90
13328;DHT22;6733;51.044;3.746;2023-02-17T10:58:53;12.60;99.90
13328;DHT22;6733;51.044;3.746;2023-02-17T11:01:21;12.60;99.90
13328;DHT22;6733;51.044;3.746;2023-02-17T11:04:06;12.40;99.90
13328;DHT22;6733;51.044;3.746;2023-02-17T11:06:43;12.30;99.90
13328;DHT22;6733;51.044;3.746;2023-02-17T11:09:39;12.30;99.90
13328;DHT22;6733;51.044;3.746;2023-02-17T11:12:20;12.20;99.90
13328;DHT22;6733;51.044;3.746;2023-02-17T11:14:53;12.30;99.90
13328;DHT22;6733;51.044;3.746;2023-02-17T11:17:37;12.20;99.90
13328;DHT22;6733;51.044;3.746;2023-02-17T11:20:08;12.20;99.90
13328;DHT22;6733;51.044;3.746;2023-02-17T11:23:03;12.20;99.90
13328;DHT22;6733;51.044;3.746;2023-02-17T11:25:32;12.20;99.90
13328;DHT22;6733;51.044;3.746;2023-02-17T11:28:01;12.20;99.90
13328;DHT22;6733;51.044;3.746;2023-02-17T11:30:31;12.20;99.90
13328;DHT22;6733;51.044;3.746;2023-02-17T11:32:57;12.30;99.90
13328;DHT22;6733;51.044;3.746;2023-02-17T11:38:24;12.30;99.90
13328;DHT22;6733;51.044;3.746;2023-02-17T11:40:53;12.20;99.90
13328;DHT22;6733;51.044;3.746;2023-02-17T11:43:19;12.10;99.90
13328;DHT22;6733;51.044;3.746;2023-02-17T11:45:54;12.20;99.90
13328;DHT22;6733;51.044;3.746;2023-02-17T11:54:14;12.10;99.90
13328;DHT22;6733;51.044;3.746;2023-02-17T12:07:37;12.30;99.90
13328;DHT22;6733;51.044;3.746;2023-02-17T12:26:02;12.40;99.90
13328;DHT22;6733;51.044;3.746;2023-02-17T12:36:55;12.40;99.90
13328;DHT22;6733;51.044;3.746;2023-02-17T12:39:28;12.40;99.90
13328;DHT22;6733;51.044;3.746;2023-02-17T12:44:41;12.50;99.90
13328;DHT22;6733;51.044;3.746;2023-02-17T12:47:14;12.50;99.90
13328;DHT22;6733;51.044;3.746;2023-02-17T12:50:04;12.60;99.90
13328;DHT22;6733;51.044;3.746;2023-02-17T12:52:39;12.60;99.90
13328;DHT22;6733;51.044;3.746;2023-02-17T12:55:17;12.70;99.90
13328;DHT22;6733;51.044;3.746;2023-02-17T13:00:19;12.70;99.90
13328;DHT22;6733;51.044;3.746;2023-02-17T13:02:46;12.80;99.90
13328;DHT22;6733;51.044;3.746;2023-02-17T13:06:02;12.80;99.90
13328;DHT22;6733;51.044;3.746;2023-02-17T13:08:22;12.80;99.90
13328;DHT22;6733;51.044;3.746;2023-02-17T13:11:11;12.80;99.90
13328;DHT22;6733;51.044;3.746;2023-02-17T13:13:38;12.80;99.90
13328;DHT22;6733;51.044;3.746;2023-02-17T13:16:06;12.90;99.90
13328;DHT22;6733;51.044;3.746;2023-02-17T13:18:35;13.00;99.90
13328;DHT22;6733;51.044;3.746;2023-02-17T13:23:56;13.00;99.90
13328;DHT22;6733;51.044;3.746;2023-02-17T13:26:34;13.20;99.90
13328;DHT22;6733;51.044;3.746;2023-02-17T13:31:58;12.80;99.90
13328;DHT22;6733;51.044;3.746;2023-02-17T13:36:55;13.00;99.90
13328;DHT22;6733;51.044;3.746;2023-02-17T13:41:53;12.90;99.90
13328;DHT22;6733;51.044;3.746;2023-02-17T13:44:59;12.80;99.90
13328;DHT22;6733;51.044;3.746;2023-02-17T13:47:28;12.80;99.90
13328;DHT22;6733;51.044;3.746;2023-02-17T13:49:55;12.70;99.90
13328;DHT22;6733;51.044;3.746;2023-02-17T13:52:25;12.70;99.90
13328;DHT22;6733;51.044;3.746;2023-02-17T13:57:34;12.90;99.90
13328;DHT22;6733;51.044;3.746;2023-02-17T14:00:05;12.80;99.90
13328;DHT22;6733;51.044;3.746;2023-02-17T14:02:32;12.90;99.90
13328;DHT22;6733;51.044;3.746;2023-02-17T14:04:59;12.90;99.90
13328;DHT22;6733;51.044;3.746;2023-02-17T14:07:33;12.90;99.90
13328;DHT22;6733;51.044;3.746;2023-02-17T14:10:00;12.90;99.90
13328;DHT22;6733;51.044;3.746;2023-02-17T14:12:26;12.90;99.90
13328;DHT22;6733;51.044;3.746;2023-02-17T14:14:52;12.80;99.90
13328;DHT22;6733;51.044;3.746;2023-02-17T14:17:30;12.80;99.90
13328;DHT22;6733;51.044;3.746;2023-02-17T14:19:57;12.70;99.90
13328;DHT22;6733;51.044;3.746;2023-02-17T14:25:07;12.80;99.90
13328;DHT22;6733;51.044;3.746;2023-02-17T14:27:45;12.80;99.90
13328;DHT22;6733;51.044;3.746;2023-02-17T14:30:25;12.70;99.90
13328;DHT22;6733;51.044;3.746;2023-02-17T14:35:50;12.70;99.90
13328;DHT22;6733;51.044;3.746;2023-02-17T14:38:23;12.70;99.90
13328;DHT22;6733;51.044;3.746;2023-02-17T14:40:49;12.70;99.90
13328;DHT22;6733;51.044;3.746;2023-02-17T14:43:15;12.70;99.90
13328;DHT22;6733;51.044;3.746;2023-02-17T14:45:41;12.70;99.90
13328;DHT22;6733;51.044;3.746;2023-02-17T14:48:07;12.60;99.90
13328;DHT22;6733;51.044;3.746;2023-02-17T14:50:34;12.60;99.90
13328;DHT22;6733;51.044;3.746;2023-02-17T14:53:25;12.60;99.90
13328;DHT22;6733;51.044;3.746;2023-02-17T14:58:43;12.60;99.90
13328;DHT22;6733;51.044;3.746;2023-02-17T15:01:12;12.60;99.90
13328;DHT22;6733;51.044;3.746;2023-02-17T15:03:39;12.60;99.90
13328;DHT22;6733;51.044;3.746;2023-02-17T15:08:39;12.50;99.90
13328;DHT22;6733;51.044;3.746;2023-02-17T15:11:14;12.50;99.90
13328;DHT22;6733;51.044;3.746;2023-02-17T15:13:42;12.50;99.90
13328;DHT22;6733;51.044;3.746;2023-02-17T15:16:10;12.50;99.90
13328;DHT22;6733;51.044;3.746;2023-02-17T15:18:38;12.50;99.90
13328;DHT22;6733;51.044;3.746;2023-02-17T15:21:24;12.50;99.90
13328;DHT22;6733;51.044;3.746;2023-02-17T15:23:50;12.50;99.90
13328;DHT22;6733;51.044;3.746;2023-02-17T15:26:17;12.50;99.90
13328;DHT22;6733;51.044;3.746;2023-02-17T15:28:43;12.40;99.90
13328;DHT22;6733;51.044;3.746;2023-02-17T15:31:13;12.50;99.90
13328;DHT22;6733;51.044;3.746;2023-02-17T15:33:54;12.40;99.90
13328;DHT22;6733;51.044;3.746;2023-02-17T15:36:22;12.20;99.90
13328;DHT22;6733;51.044;3.746;2023-02-17T15:38:48;12.20;99.90
13328;DHT22;6733;51.044;3.746;2023-02-17T15:41:23;12.10;99.90
13328;DHT22;6733;51.044;3.746;2023-02-17T15:43:50;12.10;99.90
13328;DHT22;6733;51.044;3.746;2023-02-17T15:46:19;12.00;99.90
13328;DHT22;6733;51.044;3.746;2023-02-17T15:48:46;12.00;99.90
13328;DHT22;6733;51.044;3.746;2023-02-17T15:51:16;11.90;99.90
13328;DHT22;6733;51.044;3.746;2023-02-17T15:53:47;11.90;99.90
13328;DHT22;6733;51.044;3.746;2023-02-17T15:56:16;11.90;99.90
13328;DHT22;6733;51.044;3.746;2023-02-17T15:58:44;11.90;99.90
13328;DHT22;6733;51.044;3.746;2023-02-17T16:03:53;11.90;99.90
13328;DHT22;6733;51.044;3.746;2023-02-17T16:06:19;11.90;99.90
13328;DHT22;6733;51.044;3.746;2023-02-17T16:08:45;11.80;99.90
13328;DHT22;6733;51.044;3.746;2023-02-17T16:11:13;11.80;99.90
13328;DHT22;6733;51.044;3.746;2023-02-17T16:13:40;11.80;99.90
13328;DHT22;6733;51.044;3.746;2023-02-17T16:16:14;11.90;99.90
13328;DHT22;6733;51.044;3.746;2023-02-17T16:18:42;11.80;99.90
13328;DHT22;6733;51.044;3.746;2023-02-17T16:21:09;11.80;99.90
13328;DHT22;6733;51.044;3.746;2023-02-17T16:23:36;11.80;99.90
13328;DHT22;6733;51.044;3.746;2023-02-17T16:26:02;11.80;99.90
13328;DHT22;6733;51.044;3.746;2023-02-17T16:28:30;11.80;99.90
13328;DHT22;6733;51.044;3.746;2023-02-17T16:30:57;11.80;99.90
13328;DHT22;6733;51.044;3.746;2023-02-17T16:33:23;11.80;99.90
13328;DHT22;6733;51.044;3.746;2023-02-17T16:35:50;11.80;99.90
13328;DHT22;6733;51.044;3.746;2023-02-17T16:38:21;11.80;99.90
13328;DHT22;6733;51.044;3.746;2023-02-17T16:40:50;11.80;99.90
13328;DHT22;6733;51.044;3.746;2023-02-17T16:43:19;11.80;99.90
13328;DHT22;6733;51.044;3.746;2023-02-17T16:46:35;11.90;99.90
13328;DHT22;6733;51.044;3.746;2023-02-17T16:48:35;11.90;99.90
13328;DHT22;6733;51.044;3.746;2023-02-17T16:51:01;11.80;99.90
13328;DHT22;6733;51.044;3.746;2023-02-17T16:53:28;11.80;99.90
13328;DHT22;6733;51.044;3.746;2023-02-17T16:55:54;11.80;99.90
13328;DHT22;6733;51.044;3.746;2023-02-17T16:58:23;11.80;99.90
13328;DHT22;6733;51.044;3.746;2023-02-17T17:00:52;11.80;99.90
13328;DHT22;6733;51.044;3.746;2023-02-17T17:03:19;11.70;99.90
13328;DHT22;6733;51.044;3.746;2023-02-17T17:05:47;11.70;99.90
13328;DHT22;6733;51.044;3.746;2023-02-17T17:08:15;11.70;99.90
13328;DHT22;6733;51.044;3.746;2023-02-17T17:10:42;11.70;99.90
13328;DHT22;6733;51.044;3.746;2023-02-17T17:13:09;11.70;99.90
13328;DHT22;6733;51.044;3.746;2023-02-17T17:15:41;11.70;99.90
13328;DHT22;6733;51.044;3.746;2023-02-17T17:18:14;11.70;99.90
13328;DHT22;6733;51.044;3.746;2023-02-17T17:20:42;11.70;99.90
13328;DHT22;6733;51.044;3.746;2023-02-17T17:23:11;11.70;99.90
13328;DHT22;6733;51.044;3.746;2023-02-17T17:25:40;11.70;99.90
13328;DHT22;6733;51.044;3.746;2023-02-17T17:28:07;11.60;99.90
13328;DHT22;6733;51.044;3.746;2023-02-17T17:30:36;11.60;99.90
13328;DHT22;6733;51.044;3.746;2023-02-17T17:33:03;11.60;99.90
13328;DHT22;6733;51.044;3.746;2023-02-17T17:35:29;11.60;99.90
13328;DHT22;6733;51.044;3.746;2023-02-17T17:37:56;11.60;99.90
13328;DHT22;6733;51.044;3.746;2023-02-17T17:40:26;11.60;99.90
13328;DHT22;6733;51.044;3.746;2023-02-17T17:42:53;11.70;99.90
13328;DHT22;6733;51.044;3.746;2023-02-17T17:45:19;11.70;99.90
13328;DHT22;6733;51.044;3.746;2023-02-17T17:47:45;11.70;99.90
13328;DHT22;6733;51.044;3.746;2023-02-17T17:50:21;11.80;99.90
13328;DHT22;6733;51.044;3.746;2023-02-17T17:52:47;11.80;99.90
13328;DHT22;6733;51.044;3.746;2023-02-17T17:55:14;11.80;99.90
13328;DHT22;6733;51.044;3.746;2023-02-17T17:57:40;11.80;99.90